createdAt,value
2023-08-13T00:00:52.115Z,97.19
2023-08-13T00:05:55.106Z,96.98
2023-08-13T00:10:59.451Z,97.51
2023-08-13T00:16:02.466Z,98.38
2023-08-13T00:21:05.542Z,97.53
2023-08-13T00:26:09.964Z,97.22
2023-08-13T00:31:13.008Z,97.55
2023-08-13T00:36:16.359Z,97.32
2023-08-13T00:41:20.922Z,98.02
2023-08-13T00:46:24.204Z,97.63
2023-08-13T00:51:27.591Z,97.87
2023-08-13T00:56:32.031Z,98.10
2023-08-13T01:01:35.207Z,99.24
2023-08-13T01:06:48.585Z,98.28
2023-08-13T01:12:02.106Z,98.19
2023-08-13T01:17:09.171Z,98.62
2023-08-13T01:22:12.586Z,100.00
2023-08-13T01:27:25.139Z,99.98
2023-08-13T01:32:33.706Z,100.00
2023-08-13T01:37:37.226Z,100.00
2023-08-13T01:42:41.600Z,100.00
2023-08-13T01:47:44.765Z,100.00
2023-08-13T01:52:48.034Z,100.00
2023-08-13T01:57:52.732Z,100.00
2023-08-13T02:02:56.545Z,100.00
2023-08-13T02:07:59.741Z,100.00
2023-08-13T02:13:04.437Z,100.00
2023-08-13T02:18:07.769Z,100.00
2023-08-13T02:23:11.770Z,100.00
2023-08-13T02:28:16.176Z,100.00
2023-08-13T02:33:19.240Z,100.00
2023-08-13T02:38:22.373Z,100.00
2023-08-13T02:43:30.422Z,100.00
2023-08-13T02:48:33.715Z,100.00
2023-08-13T02:53:36.950Z,100.00
2023-08-13T02:58:41.397Z,100.00
2023-08-13T03:03:52.198Z,100.00
2023-08-13T03:08:56.550Z,100.00
2023-08-13T03:14:01.112Z,100.00
2023-08-13T03:19:04.584Z,100.00
2023-08-13T03:24:08.716Z,100.00
2023-08-13T03:29:13.368Z,100.00
2023-08-13T03:34:16.744Z,100.00
2023-08-13T03:39:19.840Z,100.00
2023-08-13T03:44:24.362Z,100.00
2023-08-13T03:49:27.455Z,100.00
2023-08-13T03:54:31.073Z,100.00
2023-08-13T03:59:35.685Z,100.00
2023-08-13T04:04:40.189Z,100.00
2023-08-13T04:09:44.034Z,100.00
2023-08-13T04:14:48.534Z,100.00
2023-08-13T04:19:52.413Z,100.00
2023-08-13T04:24:55.564Z,100.00
2023-08-13T04:30:05.664Z,100.00
2023-08-13T04:35:09.449Z,100.00
2023-08-13T04:40:13.310Z,100.00
2023-08-13T04:45:18.757Z,100.00
2023-08-13T04:50:22.417Z,100.00
2023-08-13T04:55:25.617Z,100.00
2023-08-13T05:00:30.679Z,100.00
2023-08-13T05:05:33.981Z,100.00
2023-08-13T05:10:37.229Z,100.00
2023-08-13T05:15:44.672Z,100.00
2023-08-13T05:20:49.222Z,100.00
2023-08-13T05:25:52.365Z,100.00
2023-08-13T05:30:57.931Z,100.00
2023-08-13T05:36:01.068Z,100.00
2023-08-13T05:41:07.348Z,100.00
2023-08-13T05:46:12.004Z,100.00
2023-08-13T05:51:15.471Z,100.00
2023-08-13T05:56:19.193Z,100.00
2023-08-13T06:01:23.549Z,100.00
2023-08-13T06:06:26.680Z,100.00
2023-08-13T06:11:29.733Z,100.00
2023-08-13T06:16:34.160Z,100.00
2023-08-13T06:21:37.256Z,100.00
2023-08-13T06:26:40.380Z,100.00
2023-08-13T06:31:44.932Z,100.00
2023-08-13T06:36:48.014Z,100.00
2023-08-13T06:41:51.091Z,100.00
2023-08-13T06:46:56.908Z,100.00
2023-08-13T06:51:59.957Z,100.00
2023-08-13T06:57:03.231Z,100.00
2023-08-13T07:02:07.752Z,100.00
2023-08-13T07:07:10.778Z,100.00
2023-08-13T07:12:16.683Z,100.00
2023-08-13T07:17:21.409Z,100.00
2023-08-13T07:22:24.688Z,100.00
2023-08-13T07:27:27.973Z,100.00
2023-08-13T07:32:32.688Z,100.00
2023-08-13T07:37:35.770Z,99.09
2023-08-13T07:42:40.899Z,98.46
2023-08-13T07:47:46.863Z,96.11
2023-08-13T07:52:51.475Z,96.46
2023-08-13T07:57:54.751Z,96.24
2023-08-13T08:02:59.319Z,96.03
2023-08-13T08:08:02.976Z,96.33
2023-08-13T08:13:06.466Z,95.41
2023-08-13T08:18:11.005Z,95.77
2023-08-13T08:23:15.275Z,93.08
2023-08-13T08:28:18.469Z,94.05
2023-08-13T08:33:24.701Z,92.40
2023-08-13T08:38:30.100Z,89.84
2023-08-13T08:43:33.430Z,87.60
2023-08-13T08:48:38.542Z,89.64
2023-08-13T08:53:42.749Z,89.02
2023-08-13T08:58:45.816Z,89.35
2023-08-13T09:03:50.608Z,89.06
2023-08-13T09:08:54.420Z,89.63
2023-08-13T09:13:57.464Z,87.14
2023-08-13T09:19:13.254Z,87.75
2023-08-13T09:24:19.519Z,85.54
2023-08-13T09:29:25.219Z,85.99
2023-08-13T09:34:31.132Z,85.24
2023-08-13T09:39:35.387Z,86.64
2023-08-13T09:44:39.337Z,85.38
2023-08-13T09:49:44.920Z,86.75
2023-08-13T09:54:49.363Z,85.30
2023-08-13T09:59:53.870Z,84.83
2023-08-13T10:04:58.830Z,82.79
2023-08-13T10:10:08.255Z,80.74
2023-08-13T10:15:12.308Z,78.14
2023-08-13T10:20:19.349Z,79.01
2023-08-13T10:25:30.174Z,75.35
2023-08-13T10:30:33.841Z,76.51
2023-08-13T10:35:40.366Z,76.40
2023-08-13T10:41:03.574Z,72.32
2023-08-13T10:46:07.515Z,72.22
2023-08-13T10:51:12.213Z,75.57
2023-08-13T10:56:19.891Z,74.19
2023-08-13T11:01:22.969Z,72.18
2023-08-13T11:06:29.340Z,75.05
2023-08-13T11:11:32.445Z,75.19
2023-08-13T11:16:37.044Z,74.91
2023-08-13T11:21:41.716Z,75.11
2023-08-13T11:26:45.561Z,75.43
2023-08-13T11:31:49.753Z,75.39
2023-08-13T11:36:56.713Z,73.64
2023-08-13T11:42:09.469Z,73.50
2023-08-13T11:47:14.105Z,72.95
2023-08-13T11:52:22.176Z,72.95
2023-08-13T11:57:25.349Z,74.11
2023-08-13T12:02:28.482Z,73.47
2023-08-13T12:07:41.613Z,75.59
2023-08-13T12:12:46.113Z,75.59
2023-08-13T12:17:49.277Z,76.21
2023-08-13T12:22:53.928Z,74.99
2023-08-13T12:27:57.168Z,76.10
2023-08-13T12:33:00.368Z,76.06
2023-08-13T12:38:04.982Z,74.73
2023-08-13T12:43:08.019Z,76.06
2023-08-13T12:48:11.275Z,76.15
2023-08-13T12:53:15.725Z,73.69
2023-08-13T12:58:18.858Z,74.93
2023-08-13T13:03:21.946Z,69.93
2023-08-13T13:08:28.333Z,75.47
2023-08-13T13:13:33.311Z,74.79
2023-08-13T13:18:36.680Z,74.47
2023-08-13T13:23:41.140Z,73.94
2023-08-13T13:28:44.344Z,72.36
2023-08-13T13:33:47.554Z,72.89
2023-08-13T13:38:52.011Z,71.81
2023-08-13T13:43:55.012Z,74.99
2023-08-13T13:48:58.164Z,78.18
2023-08-13T13:54:02.637Z,77.14
2023-08-13T13:59:07.162Z,73.93
2023-08-13T14:04:10.448Z,72.74
2023-08-13T14:09:16.944Z,73.01
2023-08-13T14:14:20.711Z,72.14
2023-08-13T14:19:23.957Z,74.05
2023-08-13T14:24:28.506Z,73.79
2023-08-13T14:29:32.182Z,73.32
2023-08-13T14:34:35.386Z,76.20
2023-08-13T14:39:39.833Z,75.26
2023-08-13T14:44:43.149Z,76.05
2023-08-13T14:49:49.149Z,75.64
2023-08-13T14:54:53.781Z,75.26
2023-08-13T14:59:56.929Z,74.24
2023-08-13T15:05:00.024Z,75.04
2023-08-13T15:10:07.017Z,75.01
2023-08-13T15:15:12.078Z,76.11
2023-08-13T15:20:15.559Z,73.08
2023-08-13T15:25:20.543Z,74.20
2023-08-13T15:30:24.059Z,72.79
2023-08-13T15:35:27.190Z,72.28
2023-08-13T15:40:31.676Z,73.81
2023-08-13T15:45:34.763Z,71.44
2023-08-13T15:50:37.954Z,69.34
2023-08-13T15:55:42.896Z,71.93
2023-08-13T16:00:46.267Z,72.29
2023-08-13T16:05:51.754Z,68.22
2023-08-13T16:11:00.182Z,67.31
2023-08-13T16:16:03.273Z,68.92
2023-08-13T16:21:06.497Z,71.84
2023-08-13T16:26:11.148Z,72.43
2023-08-13T16:31:14.304Z,67.26
2023-08-13T16:36:18.043Z,69.33
2023-08-13T16:41:22.565Z,68.70
2023-08-13T16:46:25.899Z,66.64
2023-08-13T16:51:29.139Z,65.03
2023-08-13T16:56:36.759Z,65.27
2023-08-13T17:01:39.941Z,70.57
2023-08-13T17:06:43.193Z,72.89
2023-08-13T17:11:47.610Z,73.79
2023-08-13T17:16:50.622Z,74.58
2023-08-13T17:21:53.605Z,74.94
2023-08-13T17:27:02.771Z,75.62
2023-08-13T17:32:07.866Z,74.88
2023-08-13T17:37:11.428Z,75.34
2023-08-13T17:42:15.903Z,74.30
2023-08-13T17:47:19.466Z,72.61
2023-08-13T17:52:22.601Z,71.05
2023-08-13T17:57:27.316Z,73.72
2023-08-13T18:02:30.727Z,71.79
2023-08-13T18:07:33.963Z,74.61
2023-08-13T18:12:38.777Z,75.46
2023-08-13T18:17:42.206Z,75.27
2023-08-13T18:22:45.616Z,75.64
2023-08-13T18:27:50.163Z,75.60
2023-08-13T18:32:53.389Z,76.36
2023-08-13T18:37:57.962Z,77.32
2023-08-13T18:43:03.586Z,78.21
2023-08-13T18:48:07.208Z,78.94
2023-08-13T18:53:10.842Z,79.84
2023-08-13T18:58:18.924Z,81.01
2023-08-13T19:03:22.361Z,82.06
2023-08-13T19:08:25.720Z,81.47
2023-08-13T19:13:31.603Z,81.40
2023-08-13T19:18:34.801Z,82.60
2023-08-13T19:23:37.883Z,83.59
2023-08-13T19:28:42.481Z,84.11
2023-08-13T19:33:45.808Z,84.63
2023-08-13T19:38:51.592Z,85.10
2023-08-13T19:44:02.472Z,85.86
2023-08-13T19:49:06.832Z,86.10
2023-08-13T19:54:11.043Z,86.70
2023-08-13T19:59:17.977Z,87.40
2023-08-13T20:04:21.176Z,88.01
2023-08-13T20:09:26.509Z,88.47
2023-08-13T20:14:41.053Z,88.94
2023-08-13T20:19:46.490Z,89.57
2023-08-13T20:24:50.909Z,89.91
2023-08-13T20:29:58.305Z,89.62
2023-08-13T20:35:01.712Z,90.22
2023-08-13T20:40:10.847Z,90.63
2023-08-13T20:45:16.251Z,91.08
2023-08-13T20:50:19.966Z,91.50
2023-08-13T20:55:23.377Z,91.27
2023-08-13T21:00:27.982Z,91.59
2023-08-13T21:06:07.332Z,92.45
2023-08-13T21:11:12.444Z,93.46
2023-08-13T21:16:16.981Z,94.24
2023-08-13T21:21:21.752Z,94.22
2023-08-13T21:26:25.866Z,93.88
2023-08-13T21:31:30.645Z,94.85
2023-08-13T21:36:35.899Z,95.04
2023-08-13T21:41:39.120Z,95.26
2023-08-13T21:46:43.622Z,96.07
2023-08-13T21:51:47.312Z,95.93
2023-08-13T21:56:50.915Z,95.14
2023-08-13T22:01:55.449Z,96.25
2023-08-13T22:06:58.644Z,96.13
2023-08-13T22:12:02.073Z,96.05
2023-08-13T22:17:06.898Z,95.93
2023-08-13T22:22:10.140Z,98.49
2023-08-13T22:27:13.894Z,98.25
2023-08-13T22:32:18.708Z,98.28
2023-08-13T22:37:22.196Z,98.61
2023-08-13T22:42:25.310Z,98.61
2023-08-13T22:47:29.837Z,99.32
2023-08-13T22:52:33.013Z,100.00
2023-08-13T22:57:36.309Z,100.00
2023-08-13T23:02:40.870Z,100.00
2023-08-13T23:07:44.169Z,100.00
2023-08-13T23:12:47.347Z,99.79
2023-08-13T23:17:52.008Z,100.00
2023-08-13T23:22:56.037Z,100.00
2023-08-13T23:27:59.258Z,100.00
2023-08-13T23:33:03.910Z,100.00
2023-08-13T23:38:09.528Z,100.00
2023-08-13T23:43:12.752Z,100.00
2023-08-13T23:48:17.206Z,100.00
2023-08-13T23:53:20.257Z,100.00
2023-08-13T23:58:23.362Z,100.00
